sensor_id;sensor_type;location;lat;lon;timestamp;P1;durP1;ratioP1;P2;durP2;ratioP2
43540;SDS011;29549;40.386;-3.710;2022-12-10T00:04:53;7.75;;;6.50;;
43540;SDS011;29549;40.386;-3.710;2022-12-10T00:14:57;5.57;;;4.57;;
43540;SDS011;29549;40.386;-3.710;2022-12-10T00:25:00;10.13;;;9.07;;
43540;SDS011;29549;40.386;-3.710;2022-12-10T00:35:04;6.80;;;5.20;;
43540;SDS011;29549;40.386;-3.710;2022-12-10T00:45:06;6.43;;;5.00;;
43540;SDS011;29549;40.386;-3.710;2022-12-10T00:55:09;6.65;;;5.28;;
43540;SDS011;29549;40.386;-3.710;2022-12-10T01:05:13;6.93;;;5.60;;
43540;SDS011;29549;40.386;-3.710;2022-12-10T01:15:19;6.00;;;4.75;;
43540;SDS011;29549;40.386;-3.710;2022-12-10T01:25:27;7.10;;;5.03;;
43540;SDS011;29549;40.386;-3.710;2022-12-10T01:35:35;10.15;;;7.40;;
43540;SDS011;29549;40.386;-3.710;2022-12-10T01:45:46;8.13;;;6.32;;
43540;SDS011;29549;40.386;-3.710;2022-12-10T01:55:55;6.03;;;4.88;;
43540;SDS011;29549;40.386;-3.710;2022-12-10T02:06:53;5.40;;;3.40;;
43540;SDS011;29549;40.386;-3.710;2022-12-10T02:16:58;6.07;;;4.57;;
43540;SDS011;29549;40.386;-3.710;2022-12-10T02:27:25;5.85;;;4.55;;
43540;SDS011;29549;40.386;-3.710;2022-12-10T02:48:10;8.02;;;5.72;;
43540;SDS011;29549;40.386;-3.710;2022-12-10T03:19:44;9.10;;;7.25;;
43540;SDS011;29549;40.386;-3.710;2022-12-10T03:30:03;8.17;;;6.83;;
43540;SDS011;29549;40.386;-3.710;2022-12-10T03:40:24;10.40;;;8.50;;
43540;SDS011;29549;40.386;-3.710;2022-12-10T03:50:43;12.13;;;8.02;;
43540;SDS011;29549;40.386;-3.710;2022-12-10T04:00:46;8.93;;;8.02;;
43540;SDS011;29549;40.386;-3.710;2022-12-10T04:10:51;2.90;;;2.00;;
43540;SDS011;29549;40.386;-3.710;2022-12-10T04:20:55;2.30;;;2.05;;
43540;SDS011;29549;40.386;-3.710;2022-12-10T04:31:16;2.08;;;1.83;;
43540;SDS011;29549;40.386;-3.710;2022-12-10T04:41:21;2.50;;;1.98;;
43540;SDS011;29549;40.386;-3.710;2022-12-10T04:51:43;7.88;;;6.60;;
43540;SDS011;29549;40.386;-3.710;2022-12-10T05:01:47;11.33;;;9.70;;
43540;SDS011;29549;40.386;-3.710;2022-12-10T05:11:50;14.40;;;11.25;;
43540;SDS011;29549;40.386;-3.710;2022-12-10T05:21:52;14.88;;;11.27;;
43540;SDS011;29549;40.386;-3.710;2022-12-10T05:32:33;16.92;;;11.95;;
43540;SDS011;29549;40.386;-3.710;2022-12-10T05:42:54;20.00;;;14.43;;
43540;SDS011;29549;40.386;-3.710;2022-12-10T05:53:15;20.20;;;12.60;;
43540;SDS011;29549;40.386;-3.710;2022-12-10T06:03:22;12.73;;;9.20;;
43540;SDS011;29549;40.386;-3.710;2022-12-10T06:13:25;18.83;;;12.57;;
43540;SDS011;29549;40.386;-3.710;2022-12-10T06:23:28;19.85;;;12.60;;
43540;SDS011;29549;40.386;-3.710;2022-12-10T06:33:32;19.45;;;12.32;;
43540;SDS011;29549;40.386;-3.710;2022-12-10T06:43:34;17.23;;;11.20;;
43540;SDS011;29549;40.386;-3.710;2022-12-10T06:53:37;18.30;;;11.73;;
43540;SDS011;29549;40.386;-3.710;2022-12-10T07:03:40;18.60;;;12.23;;
43540;SDS011;29549;40.386;-3.710;2022-12-10T07:13:42;21.20;;;13.20;;
43540;SDS011;29549;40.386;-3.710;2022-12-10T07:23:46;17.17;;;11.65;;
43540;SDS011;29549;40.386;-3.710;2022-12-10T07:33:49;21.10;;;12.60;;
43540;SDS011;29549;40.386;-3.710;2022-12-10T07:43:51;18.10;;;10.07;;
43540;SDS011;29549;40.386;-3.710;2022-12-10T07:53:53;24.20;;;12.98;;
43540;SDS011;29549;40.386;-3.710;2022-12-10T08:03:55;26.05;;;13.85;;
43540;SDS011;29549;40.386;-3.710;2022-12-10T08:13:57;23.88;;;12.98;;
43540;SDS011;29549;40.386;-3.710;2022-12-10T08:23:59;20.65;;;11.80;;
43540;SDS011;29549;40.386;-3.710;2022-12-10T08:34:01;23.73;;;12.10;;
43540;SDS011;29549;40.386;-3.710;2022-12-10T08:44:03;22.20;;;12.40;;
43540;SDS011;29549;40.386;-3.710;2022-12-10T08:54:05;24.15;;;13.85;;
43540;SDS011;29549;40.386;-3.710;2022-12-10T09:04:07;22.55;;;12.93;;
43540;SDS011;29549;40.386;-3.710;2022-12-10T09:14:08;23.88;;;13.88;;
43540;SDS011;29549;40.386;-3.710;2022-12-10T09:24:10;24.05;;;13.20;;
43540;SDS011;29549;40.386;-3.710;2022-12-10T09:34:12;18.08;;;10.23;;
43540;SDS011;29549;40.386;-3.710;2022-12-10T09:44:26;17.77;;;10.60;;
43540;SDS011;29549;40.386;-3.710;2022-12-10T10:04:53;10.43;;;7.18;;
43540;SDS011;29549;40.386;-3.710;2022-12-10T10:15:16;11.00;;;7.95;;
43540;SDS011;29549;40.386;-3.710;2022-12-10T10:25:22;14.38;;;9.90;;
43540;SDS011;29549;40.386;-3.710;2022-12-10T10:35:32;8.15;;;5.28;;
43540;SDS011;29549;40.386;-3.710;2022-12-10T10:45:42;13.90;;;9.95;;
43540;SDS011;29549;40.386;-3.710;2022-12-10T10:55:49;6.85;;;4.70;;
43540;SDS011;29549;40.386;-3.710;2022-12-10T11:05:53;8.45;;;6.18;;
43540;SDS011;29549;40.386;-3.710;2022-12-10T11:16:01;7.75;;;5.75;;
43540;SDS011;29549;40.386;-3.710;2022-12-10T11:46:55;1.58;;;0.85;;
43540;SDS011;29549;40.386;-3.710;2022-12-10T12:17:36;2.90;;;1.15;;
43540;SDS011;29549;40.386;-3.710;2022-12-10T12:27:48;3.22;;;1.10;;
43540;SDS011;29549;40.386;-3.710;2022-12-10T12:37:55;2.65;;;0.90;;
43540;SDS011;29549;40.386;-3.710;2022-12-10T12:48:29;2.60;;;1.88;;
43540;SDS011;29549;40.386;-3.710;2022-12-10T12:58:48;7.82;;;2.10;;
43540;SDS011;29549;40.386;-3.710;2022-12-10T13:19:16;7.07;;;2.50;;
43540;SDS011;29549;40.386;-3.710;2022-12-10T13:29:24;1.13;;;0.70;;
43540;SDS011;29549;40.386;-3.710;2022-12-10T13:39:32;3.75;;;0.90;;
43540;SDS011;29549;40.386;-3.710;2022-12-10T13:49:49;1.77;;;0.90;;
43540;SDS011;29549;40.386;-3.710;2022-12-10T14:00:18;2.50;;;1.00;;
43540;SDS011;29549;40.386;-3.710;2022-12-10T14:10:26;1.55;;;0.90;;
43540;SDS011;29549;40.386;-3.710;2022-12-10T14:20:32;2.80;;;1.20;;
43540;SDS011;29549;40.386;-3.710;2022-12-10T14:30:36;3.00;;;1.70;;
43540;SDS011;29549;40.386;-3.710;2022-12-10T14:40:45;1.92;;;1.02;;
43540;SDS011;29549;40.386;-3.710;2022-12-10T14:50:47;3.55;;;1.80;;
43540;SDS011;29549;40.386;-3.710;2022-12-10T15:00:49;2.45;;;1.50;;
43540;SDS011;29549;40.386;-3.710;2022-12-10T15:10:51;5.93;;;2.85;;
43540;SDS011;29549;40.386;-3.710;2022-12-10T15:21:30;2.72;;;1.50;;
43540;SDS011;29549;40.386;-3.710;2022-12-10T15:51:40;3.83;;;2.10;;
43540;SDS011;29549;40.386;-3.710;2022-12-10T16:01:42;5.47;;;2.40;;
43540;SDS011;29549;40.386;-3.710;2022-12-10T16:11:43;2.72;;;2.28;;
43540;SDS011;29549;40.386;-3.710;2022-12-10T16:21:46;3.17;;;2.38;;
43540;SDS011;29549;40.386;-3.710;2022-12-10T16:31:49;3.03;;;2.20;;
43540;SDS011;29549;40.386;-3.710;2022-12-10T16:41:51;4.40;;;2.83;;
43540;SDS011;29549;40.386;-3.710;2022-12-10T16:51:55;5.07;;;3.03;;
43540;SDS011;29549;40.386;-3.710;2022-12-10T17:01:56;6.68;;;2.83;;
43540;SDS011;29549;40.386;-3.710;2022-12-10T17:11:58;4.70;;;2.42;;
43540;SDS011;29549;40.386;-3.710;2022-12-10T17:22:00;2.88;;;1.70;;
43540;SDS011;29549;40.386;-3.710;2022-12-10T17:32:03;12.35;;;8.80;;
43540;SDS011;29549;40.386;-3.710;2022-12-10T17:42:06;2.63;;;2.05;;
43540;SDS011;29549;40.386;-3.710;2022-12-10T17:52:09;4.25;;;1.80;;
43540;SDS011;29549;40.386;-3.710;2022-12-10T18:02:11;5.18;;;4.03;;
43540;SDS011;29549;40.386;-3.710;2022-12-10T18:12:13;5.15;;;2.42;;
43540;SDS011;29549;40.386;-3.710;2022-12-10T18:22:15;7.53;;;5.10;;
43540;SDS011;29549;40.386;-3.710;2022-12-10T18:32:17;4.05;;;2.17;;
43540;SDS011;29549;40.386;-3.710;2022-12-10T18:42:18;3.15;;;2.15;;
43540;SDS011;29549;40.386;-3.710;2022-12-10T18:52:20;5.78;;;3.17;;
43540;SDS011;29549;40.386;-3.710;2022-12-10T19:02:21;7.28;;;4.47;;
43540;SDS011;29549;40.386;-3.710;2022-12-10T19:12:23;4.85;;;3.45;;
43540;SDS011;29549;40.386;-3.710;2022-12-10T19:22:25;6.60;;;3.85;;
43540;SDS011;29549;40.386;-3.710;2022-12-10T19:32:26;7.57;;;4.20;;
43540;SDS011;29549;40.386;-3.710;2022-12-10T19:42:28;7.70;;;3.60;;
43540;SDS011;29549;40.386;-3.710;2022-12-10T19:52:30;6.07;;;4.20;;
43540;SDS011;29549;40.386;-3.710;2022-12-10T20:02:32;7.18;;;4.00;;
43540;SDS011;29549;40.386;-3.710;2022-12-10T20:12:34;7.80;;;5.18;;
43540;SDS011;29549;40.386;-3.710;2022-12-10T20:22:36;5.60;;;3.75;;
43540;SDS011;29549;40.386;-3.710;2022-12-10T20:32:38;7.35;;;4.07;;
43540;SDS011;29549;40.386;-3.710;2022-12-10T20:42:39;6.38;;;3.20;;
43540;SDS011;29549;40.386;-3.710;2022-12-10T20:52:41;5.55;;;3.20;;
43540;SDS011;29549;40.386;-3.710;2022-12-10T21:02:43;5.85;;;3.65;;
43540;SDS011;29549;40.386;-3.710;2022-12-10T21:12:46;5.25;;;3.20;;
43540;SDS011;29549;40.386;-3.710;2022-12-10T21:22:47;5.40;;;2.60;;
43540;SDS011;29549;40.386;-3.710;2022-12-10T21:32:49;5.95;;;2.92;;
43540;SDS011;29549;40.386;-3.710;2022-12-10T21:42:52;5.93;;;2.30;;
43540;SDS011;29549;40.386;-3.710;2022-12-10T21:53:13;8.25;;;2.63;;
43540;SDS011;29549;40.386;-3.710;2022-12-10T22:03:17;5.50;;;2.10;;
43540;SDS011;29549;40.386;-3.710;2022-12-10T22:13:22;6.57;;;2.47;;
43540;SDS011;29549;40.386;-3.710;2022-12-10T22:23:25;5.68;;;2.33;;
43540;SDS011;29549;40.386;-3.710;2022-12-10T22:33:28;5.90;;;2.33;;
43540;SDS011;29549;40.386;-3.710;2022-12-10T22:43:31;5.90;;;2.20;;
43540;SDS011;29549;40.386;-3.710;2022-12-10T22:53:34;5.85;;;1.98;;
43540;SDS011;29549;40.386;-3.710;2022-12-10T23:03:37;3.40;;;1.73;;
43540;SDS011;29549;40.386;-3.710;2022-12-10T23:13:39;5.78;;;2.13;;
43540;SDS011;29549;40.386;-3.710;2022-12-10T23:23:43;7.93;;;2.28;;
43540;SDS011;29549;40.386;-3.710;2022-12-10T23:33:45;6.80;;;2.45;;
43540;SDS011;29549;40.386;-3.710;2022-12-10T23:43:47;5.82;;;1.75;;
43540;SDS011;29549;40.386;-3.710;2022-12-10T23:53:49;6.47;;;2.33;;
